sensor_id;sensor_type;location;lat;lon;timestamp;pressure;altitude;pressure_sealevel;temperature;humidity
25855;BME280;13680;49.936;11.344;2023-08-24T00:00:31;97047.53;;;18.39;70.88
25855;BME280;13680;49.936;11.344;2023-08-24T00:02:57;97043.16;;;18.35;70.77
25855;BME280;13680;49.936;11.344;2023-08-24T00:05:23;97039.50;;;18.30;70.98
25855;BME280;13680;49.936;11.344;2023-08-24T00:07:48;97044.16;;;18.30;70.93
25855;BME280;13680;49.936;11.344;2023-08-24T00:10:14;97039.41;;;18.27;71.10
25855;BME280;13680;49.936;11.344;2023-08-24T00:12:39;97043.94;;;18.23;70.93
25855;BME280;13680;49.936;11.344;2023-08-24T00:15:08;97043.59;;;18.24;71.17
25855;BME280;13680;49.936;11.344;2023-08-24T00:17:34;97039.31;;;18.23;71.50
25855;BME280;13680;49.936;11.344;2023-08-24T00:19:59;97038.50;;;18.23;71.69
25855;BME280;13680;49.936;11.344;2023-08-24T00:22:25;97038.50;;;18.23;71.28
25855;BME280;13680;49.936;11.344;2023-08-24T00:24:50;97029.91;;;18.21;71.66
25855;BME280;13680;49.936;11.344;2023-08-24T00:27:15;97037.13;;;18.16;71.57
25855;BME280;13680;49.936;11.344;2023-08-24T00:29:40;97033.09;;;18.10;72.16
25855;BME280;13680;49.936;11.344;2023-08-24T00:32:06;97024.00;;;18.06;71.71
25855;BME280;13680;49.936;11.344;2023-08-24T00:34:31;97027.88;;;18.05;72.00
25855;BME280;13680;49.936;11.344;2023-08-24T00:36:57;97028.53;;;18.02;71.83
25855;BME280;13680;49.936;11.344;2023-08-24T00:39:22;97016.88;;;18.02;71.68
25855;BME280;13680;49.936;11.344;2023-08-24T00:41:47;97021.06;;;17.99;71.59
25855;BME280;13680;49.936;11.344;2023-08-24T00:44:12;97023.34;;;17.97;71.80
25855;BME280;13680;49.936;11.344;2023-08-24T00:46:38;97015.38;;;17.92;72.15
25855;BME280;13680;49.936;11.344;2023-08-24T00:49:03;97019.91;;;17.88;72.47
25855;BME280;13680;49.936;11.344;2023-08-24T00:51:29;97017.19;;;17.88;72.54
25855;BME280;13680;49.936;11.344;2023-08-24T00:53:54;97023.31;;;17.84;72.87
25855;BME280;13680;49.936;11.344;2023-08-24T00:56:19;97017.84;;;17.84;72.57
25855;BME280;13680;49.936;11.344;2023-08-24T00:58:50;97019.00;;;17.83;72.44
25855;BME280;13680;49.936;11.344;2023-08-24T01:01:17;97008.91;;;17.84;72.03
25855;BME280;13680;49.936;11.344;2023-08-24T01:03:43;97012.66;;;17.79;72.42
25855;BME280;13680;49.936;11.344;2023-08-24T01:06:08;97006.19;;;17.72;72.92
25855;BME280;13680;49.936;11.344;2023-08-24T01:08:33;97007.91;;;17.76;72.50
25855;BME280;13680;49.936;11.344;2023-08-24T01:11:03;97008.56;;;17.73;72.56
25855;BME280;13680;49.936;11.344;2023-08-24T01:13:50;97010.38;;;17.69;72.31
25855;BME280;13680;49.936;11.344;2023-08-24T01:16:25;97006.28;;;17.63;72.90
25855;BME280;13680;49.936;11.344;2023-08-24T01:18:55;97017.09;;;17.59;73.16
25855;BME280;13680;49.936;11.344;2023-08-24T01:21:21;97018.44;;;17.53;73.83
25855;BME280;13680;49.936;11.344;2023-08-24T01:24:36;97018.75;;;17.51;73.95
25855;BME280;13680;49.936;11.344;2023-08-24T01:27:04;97014.13;;;17.52;73.91
25855;BME280;13680;49.936;11.344;2023-08-24T01:29:29;97014.13;;;17.52;73.22
25855;BME280;13680;49.936;11.344;2023-08-24T01:31:55;97011.06;;;17.54;73.02
25855;BME280;13680;49.936;11.344;2023-08-24T01:34:20;97016.84;;;17.52;73.23
25855;BME280;13680;49.936;11.344;2023-08-24T01:36:46;97017.84;;;17.47;73.32
25855;BME280;13680;49.936;11.344;2023-08-24T01:39:17;97017.19;;;17.50;73.43
25855;BME280;13680;49.936;11.344;2023-08-24T01:41:49;97017.06;;;17.47;73.48
25855;BME280;13680;49.936;11.344;2023-08-24T01:44:18;97013.53;;;17.46;73.95
25855;BME280;13680;49.936;11.344;2023-08-24T01:46:45;97015.94;;;17.48;73.71
25855;BME280;13680;49.936;11.344;2023-08-24T01:49:14;97007.31;;;17.46;73.49
25855;BME280;13680;49.936;11.344;2023-08-24T01:51:40;97005.16;;;17.39;73.41
25855;BME280;13680;49.936;11.344;2023-08-24T01:54:06;97004.91;;;17.32;73.77
25855;BME280;13680;49.936;11.344;2023-08-24T01:56:32;97005.03;;;17.36;73.51
25855;BME280;13680;49.936;11.344;2023-08-24T01:58:57;97002.44;;;17.39;73.09
25855;BME280;13680;49.936;11.344;2023-08-24T02:01:22;96999.47;;;17.32;73.23
25855;BME280;13680;49.936;11.344;2023-08-24T02:03:47;96995.16;;;17.31;73.35
25855;BME280;13680;49.936;11.344;2023-08-24T02:06:13;96991.78;;;17.34;73.14
25855;BME280;13680;49.936;11.344;2023-08-24T02:08:38;96986.22;;;17.30;73.64
25855;BME280;13680;49.936;11.344;2023-08-24T02:11:03;96991.53;;;17.27;73.81
25855;BME280;13680;49.936;11.344;2023-08-24T02:13:29;96986.44;;;17.25;73.98
25855;BME280;13680;49.936;11.344;2023-08-24T02:16:05;96993.78;;;17.25;73.98
25855;BME280;13680;49.936;11.344;2023-08-24T02:18:31;96988.03;;;17.26;73.41
25855;BME280;13680;49.936;11.344;2023-08-24T02:20:56;96996.84;;;17.23;73.36
25855;BME280;13680;49.936;11.344;2023-08-24T02:23:22;96995.59;;;17.21;73.48
25855;BME280;13680;49.936;11.344;2023-08-24T02:25:47;96987.22;;;17.13;73.85
25855;BME280;13680;49.936;11.344;2023-08-24T02:28:12;96991.19;;;17.16;73.88
25855;BME280;13680;49.936;11.344;2023-08-24T02:30:38;96994.22;;;17.14;73.98
25855;BME280;13680;49.936;11.344;2023-08-24T02:33:04;97000.47;;;17.15;73.94
25855;BME280;13680;49.936;11.344;2023-08-24T02:35:29;97002.72;;;17.13;73.48
25855;BME280;13680;49.936;11.344;2023-08-24T02:37:55;97002.59;;;17.09;73.80
25855;BME280;13680;49.936;11.344;2023-08-24T02:40:22;96998.75;;;17.10;73.44
25855;BME280;13680;49.936;11.344;2023-08-24T02:42:47;96995.59;;;17.08;73.79
25855;BME280;13680;49.936;11.344;2023-08-24T02:45:13;96999.88;;;16.97;73.68
25855;BME280;13680;49.936;11.344;2023-08-24T02:47:38;96999.41;;;16.95;73.80
25855;BME280;13680;49.936;11.344;2023-08-24T02:50:05;97002.63;;;16.88;74.27
25855;BME280;13680;49.936;11.344;2023-08-24T02:52:31;96996.84;;;16.90;74.36
25855;BME280;13680;49.936;11.344;2023-08-24T02:54:57;96998.78;;;16.89;73.79
25855;BME280;13680;49.936;11.344;2023-08-24T02:57:22;97001.81;;;16.88;73.62
25855;BME280;13680;49.936;11.344;2023-08-24T02:59:48;97005.34;;;16.88;74.04
25855;BME280;13680;49.936;11.344;2023-08-24T03:02:13;96997.84;;;16.85;74.12
25855;BME280;13680;49.936;11.344;2023-08-24T03:04:38;96995.34;;;16.80;74.37
25855;BME280;13680;49.936;11.344;2023-08-24T03:07:04;97009.75;;;16.80;74.29
25855;BME280;13680;49.936;11.344;2023-08-24T03:09:32;97000.34;;;16.78;74.50
25855;BME280;13680;49.936;11.344;2023-08-24T03:11:57;97012.44;;;16.80;74.24
25855;BME280;13680;49.936;11.344;2023-08-24T03:14:23;97016.63;;;16.78;74.49
25855;BME280;13680;49.936;11.344;2023-08-24T03:16:48;97013.66;;;16.71;74.63
25855;BME280;13680;49.936;11.344;2023-08-24T03:19:13;97007.09;;;16.72;74.22
25855;BME280;13680;49.936;11.344;2023-08-24T03:21:39;97016.72;;;16.69;74.49
25855;BME280;13680;49.936;11.344;2023-08-24T03:24:05;97017.03;;;16.67;74.99
25855;BME280;13680;49.936;11.344;2023-08-24T03:26:31;97015.78;;;16.65;74.63
25855;BME280;13680;49.936;11.344;2023-08-24T03:28:56;97007.94;;;16.63;74.49
25855;BME280;13680;49.936;11.344;2023-08-24T03:31:21;97006.06;;;16.64;74.43
25855;BME280;13680;49.936;11.344;2023-08-24T03:33:47;97007.31;;;16.66;74.18
25855;BME280;13680;49.936;11.344;2023-08-24T03:36:12;97004.72;;;16.70;73.95
25855;BME280;13680;49.936;11.344;2023-08-24T03:38:38;97021.72;;;16.58;74.31
25855;BME280;13680;49.936;11.344;2023-08-24T03:41:03;97025.59;;;16.57;74.29
25855;BME280;13680;49.936;11.344;2023-08-24T03:43:33;97027.16;;;16.58;74.14
25855;BME280;13680;49.936;11.344;2023-08-24T03:45:59;97022.28;;;16.51;75.72
25855;BME280;13680;49.936;11.344;2023-08-24T03:48:26;97023.19;;;16.56;75.30
25855;BME280;13680;49.936;11.344;2023-08-24T03:50:55;97016.84;;;16.51;74.89
25855;BME280;13680;49.936;11.344;2023-08-24T03:53:21;97013.34;;;16.51;75.24
25855;BME280;13680;49.936;11.344;2023-08-24T03:55:48;97017.63;;;16.52;74.71
25855;BME280;13680;49.936;11.344;2023-08-24T03:58:16;97005.72;;;16.44;74.89
25855;BME280;13680;49.936;11.344;2023-08-24T04:00:43;97010.03;;;16.45;75.01
25855;BME280;13680;49.936;11.344;2023-08-24T04:03:08;97001.88;;;16.45;75.09
25855;BME280;13680;49.936;11.344;2023-08-24T04:05:34;97012.59;;;16.42;75.35
25855;BME280;13680;49.936;11.344;2023-08-24T04:07:59;97012.94;;;16.40;75.72
25855;BME280;13680;49.936;11.344;2023-08-24T04:10:29;97007.16;;;16.42;75.16
25855;BME280;13680;49.936;11.344;2023-08-24T04:12:54;97009.44;;;16.40;74.77
25855;BME280;13680;49.936;11.344;2023-08-24T04:15:19;97008.38;;;16.32;74.92
25855;BME280;13680;49.936;11.344;2023-08-24T04:17:45;97008.69;;;16.30;75.13
25855;BME280;13680;49.936;11.344;2023-08-24T04:20:11;97001.50;;;16.34;75.15
25855;BME280;13680;49.936;11.344;2023-08-24T04:22:36;97010.41;;;16.35;74.88
25855;BME280;13680;49.936;11.344;2023-08-24T04:25:02;97008.97;;;16.38;74.64
25855;BME280;13680;49.936;11.344;2023-08-24T04:27:27;97011.22;;;16.35;74.82
25855;BME280;13680;49.936;11.344;2023-08-24T04:29:52;97014.88;;;16.40;74.49
25855;BME280;13680;49.936;11.344;2023-08-24T04:32:18;97014.72;;;16.36;74.84
25855;BME280;13680;49.936;11.344;2023-08-24T04:34:43;97009.56;;;16.43;74.79
25855;BME280;13680;49.936;11.344;2023-08-24T04:37:09;97020.16;;;16.36;75.29
25855;BME280;13680;49.936;11.344;2023-08-24T04:39:34;97011.22;;;16.35;75.84
25855;BME280;13680;49.936;11.344;2023-08-24T04:42:00;97021.56;;;16.42;76.04
25855;BME280;13680;49.936;11.344;2023-08-24T04:44:25;97015.78;;;16.44;75.83
25855;BME280;13680;49.936;11.344;2023-08-24T04:46:51;97016.56;;;16.44;75.19
25855;BME280;13680;49.936;11.344;2023-08-24T04:49:16;97011.28;;;16.48;75.52
25855;BME280;13680;49.936;11.344;2023-08-24T04:51:41;97006.91;;;16.56;75.32
25855;BME280;13680;49.936;11.344;2023-08-24T04:54:07;96998.03;;;16.67;74.82
25855;BME280;13680;49.936;11.344;2023-08-24T04:56:32;97012.97;;;16.74;75.02
25855;BME280;13680;49.936;11.344;2023-08-24T04:58:59;97015.38;;;16.75;75.04
25855;BME280;13680;49.936;11.344;2023-08-24T05:01:26;97020.13;;;16.78;75.15
25855;BME280;13680;49.936;11.344;2023-08-24T05:03:52;97017.81;;;16.89;75.11
25855;BME280;13680;49.936;11.344;2023-08-24T05:06:18;97015.47;;;17.00;74.97
25855;BME280;13680;49.936;11.344;2023-08-24T05:08:43;97019.59;;;17.06;74.83
25855;BME280;13680;49.936;11.344;2023-08-24T05:11:17;97010.09;;;17.12;74.54
25855;BME280;13680;49.936;11.344;2023-08-24T05:13:43;97012.38;;;17.23;74.17
25855;BME280;13680;49.936;11.344;2023-08-24T05:16:09;97016.59;;;17.32;74.49
25855;BME280;13680;49.936;11.344;2023-08-24T05:18:35;97010.72;;;17.43;73.71
25855;BME280;13680;49.936;11.344;2023-08-24T05:21:04;97016.38;;;17.50;73.69
25855;BME280;13680;49.936;11.344;2023-08-24T05:23:30;97019.22;;;17.66;73.63
25855;BME280;13680;49.936;11.344;2023-08-24T05:25:57;97025.25;;;17.59;73.83
25855;BME280;13680;49.936;11.344;2023-08-24T05:28:24;97018.88;;;17.67;73.42
25855;BME280;13680;49.936;11.344;2023-08-24T05:30:51;97021.84;;;17.75;73.02
25855;BME280;13680;49.936;11.344;2023-08-24T05:33:16;97016.06;;;17.89;72.91
25855;BME280;13680;49.936;11.344;2023-08-24T05:35:42;97014.25;;;17.93;73.43
25855;BME280;13680;49.936;11.344;2023-08-24T05:38:07;97014.34;;;18.09;73.39
25855;BME280;13680;49.936;11.344;2023-08-24T05:40:33;97005.53;;;17.99;74.42
25855;BME280;13680;49.936;11.344;2023-08-24T05:42:59;96998.25;;;18.04;74.28
25855;BME280;13680;49.936;11.344;2023-08-24T05:45:24;96992.31;;;18.39;72.96
25855;BME280;13680;49.936;11.344;2023-08-24T05:47:49;96988.72;;;18.63;71.99
25855;BME280;13680;49.936;11.344;2023-08-24T05:50:14;96996.03;;;18.75;72.34
25855;BME280;13680;49.936;11.344;2023-08-24T05:52:40;96991.44;;;18.91;71.83
25855;BME280;13680;49.936;11.344;2023-08-24T05:55:05;96996.94;;;19.07;71.21
25855;BME280;13680;49.936;11.344;2023-08-24T05:57:31;96992.38;;;19.11;71.90
25855;BME280;13680;49.936;11.344;2023-08-24T05:59:56;96992.53;;;19.19;71.56
25855;BME280;13680;49.936;11.344;2023-08-24T06:02:21;96984.81;;;19.21;70.75
25855;BME280;13680;49.936;11.344;2023-08-24T06:04:47;96976.28;;;19.22;71.18
25855;BME280;13680;49.936;11.344;2023-08-24T06:07:12;96968.22;;;19.42;70.94
25855;BME280;13680;49.936;11.344;2023-08-24T06:09:37;96970.91;;;19.58;70.75
25855;BME280;13680;49.936;11.344;2023-08-24T06:12:03;96967.91;;;19.79;70.31
25855;BME280;13680;49.936;11.344;2023-08-24T06:14:28;96956.97;;;19.95;69.66
25855;BME280;13680;49.936;11.344;2023-08-24T06:16:53;96953.13;;;20.16;69.38
25855;BME280;13680;49.936;11.344;2023-08-24T06:19:19;96957.31;;;20.49;68.64
25855;BME280;13680;49.936;11.344;2023-08-24T06:21:44;96947.03;;;20.61;68.17
25855;BME280;13680;49.936;11.344;2023-08-24T06:24:09;96939.22;;;20.80;68.53
25855;BME280;13680;49.936;11.344;2023-08-24T06:26:35;96930.22;;;21.02;68.20
25855;BME280;13680;49.936;11.344;2023-08-24T06:29:00;96935.22;;;21.20;67.39
25855;BME280;13680;49.936;11.344;2023-08-24T06:31:25;96933.69;;;21.22;67.55
25855;BME280;13680;49.936;11.344;2023-08-24T06:33:51;96936.81;;;21.21;67.99
25855;BME280;13680;49.936;11.344;2023-08-24T06:36:16;96935.03;;;21.32;67.76
25855;BME280;13680;49.936;11.344;2023-08-24T06:38:41;96930.03;;;21.38;67.78
25855;BME280;13680;49.936;11.344;2023-08-24T06:41:06;96931.06;;;21.53;66.62
25855;BME280;13680;49.936;11.344;2023-08-24T06:43:37;96921.03;;;21.61;66.63
25855;BME280;13680;49.936;11.344;2023-08-24T06:46:04;96915.63;;;21.64;67.14
25855;BME280;13680;49.936;11.344;2023-08-24T06:48:29;96914.09;;;21.67;67.54
25855;BME280;13680;49.936;11.344;2023-08-24T06:50:54;96902.47;;;21.73;67.51
25855;BME280;13680;49.936;11.344;2023-08-24T06:53:20;96895.41;;;21.72;67.66
25855;BME280;13680;49.936;11.344;2023-08-24T06:55:45;96888.88;;;21.81;67.12
25855;BME280;13680;49.936;11.344;2023-08-24T06:58:10;96896.06;;;21.93;67.56
25855;BME280;13680;49.936;11.344;2023-08-24T07:00:36;96889.56;;;22.04;67.06
25855;BME280;13680;49.936;11.344;2023-08-24T07:03:01;96889.50;;;22.31;65.78
25855;BME280;13680;49.936;11.344;2023-08-24T07:05:27;96884.22;;;22.83;63.94
25855;BME280;13680;49.936;11.344;2023-08-24T07:07:52;96883.88;;;23.30;61.39
25855;BME280;13680;49.936;11.344;2023-08-24T07:10:19;96881.41;;;23.73;60.33
25855;BME280;13680;49.936;11.344;2023-08-24T07:12:44;96883.94;;;24.07;57.74
25855;BME280;13680;49.936;11.344;2023-08-24T07:15:11;96894.69;;;24.41;59.75
25855;BME280;13680;49.936;11.344;2023-08-24T07:17:36;96901.13;;;24.89;56.95
25855;BME280;13680;49.936;11.344;2023-08-24T07:20:03;96894.84;;;25.17;54.00
25855;BME280;13680;49.936;11.344;2023-08-24T07:22:30;96901.16;;;25.14;53.84
25855;BME280;13680;49.936;11.344;2023-08-24T07:24:56;96913.72;;;25.15;52.90
25855;BME280;13680;49.936;11.344;2023-08-24T07:27:21;96916.50;;;25.22;52.63
25855;BME280;13680;49.936;11.344;2023-08-24T07:29:47;96936.13;;;25.24;52.67
25855;BME280;13680;49.936;11.344;2023-08-24T07:32:12;96938.09;;;25.16;52.44
25855;BME280;13680;49.936;11.344;2023-08-24T07:34:38;96939.69;;;25.25;52.20
25855;BME280;13680;49.936;11.344;2023-08-24T07:37:03;96939.28;;;25.26;52.31
25855;BME280;13680;49.936;11.344;2023-08-24T07:39:29;96943.25;;;25.54;52.69
25855;BME280;13680;49.936;11.344;2023-08-24T07:41:54;96953.47;;;25.83;52.09
25855;BME280;13680;49.936;11.344;2023-08-24T07:44:20;96946.00;;;25.69;51.98
25855;BME280;13680;49.936;11.344;2023-08-24T07:46:47;96955.00;;;25.91;53.15
25855;BME280;13680;49.936;11.344;2023-08-24T07:49:12;96957.00;;;25.90;53.90
25855;BME280;13680;49.936;11.344;2023-08-24T07:51:38;96964.50;;;25.64;54.54
25855;BME280;13680;49.936;11.344;2023-08-24T07:54:03;96967.19;;;25.14;55.50
25855;BME280;13680;49.936;11.344;2023-08-24T07:56:30;96978.94;;;25.00;56.18
25855;BME280;13680;49.936;11.344;2023-08-24T07:58:55;96982.03;;;24.77;57.33
25855;BME280;13680;49.936;11.344;2023-08-24T08:01:20;96992.25;;;24.76;57.81
25855;BME280;13680;49.936;11.344;2023-08-24T08:03:46;96989.22;;;25.17;56.21
25855;BME280;13680;49.936;11.344;2023-08-24T08:06:11;96986.84;;;25.20;55.67
25855;BME280;13680;49.936;11.344;2023-08-24T08:08:37;96992.81;;;25.40;54.43
25855;BME280;13680;49.936;11.344;2023-08-24T08:11:02;96988.09;;;25.58;54.47
25855;BME280;13680;49.936;11.344;2023-08-24T08:13:29;96992.00;;;26.04;53.37
25855;BME280;13680;49.936;11.344;2023-08-24T08:16:00;96982.06;;;26.54;52.75
25855;BME280;13680;49.936;11.344;2023-08-24T08:18:26;96973.66;;;26.86;51.40
25855;BME280;13680;49.936;11.344;2023-08-24T08:20:51;96966.91;;;26.94;52.20
25855;BME280;13680;49.936;11.344;2023-08-24T08:23:17;96961.13;;;27.34;51.21
25855;BME280;13680;49.936;11.344;2023-08-24T08:25:43;96958.88;;;27.71;50.42
25855;BME280;13680;49.936;11.344;2023-08-24T08:28:08;96952.16;;;27.72;51.39
25855;BME280;13680;49.936;11.344;2023-08-24T08:30:33;96949.06;;;28.08;49.23
25855;BME280;13680;49.936;11.344;2023-08-24T08:32:59;96954.63;;;28.42;47.51
25855;BME280;13680;49.936;11.344;2023-08-24T08:35:25;96943.03;;;28.86;46.49
25855;BME280;13680;49.936;11.344;2023-08-24T08:37:50;96956.69;;;28.97;47.38
25855;BME280;13680;49.936;11.344;2023-08-24T08:40:17;96957.09;;;28.99;46.82
25855;BME280;13680;49.936;11.344;2023-08-24T08:42:42;96954.19;;;29.06;44.65
25855;BME280;13680;49.936;11.344;2023-08-24T08:45:10;96953.75;;;28.80;45.67
25855;BME280;13680;49.936;11.344;2023-08-24T08:47:35;96960.88;;;29.09;45.09
25855;BME280;13680;49.936;11.344;2023-08-24T08:50:02;96952.47;;;29.43;44.66
25855;BME280;13680;49.936;11.344;2023-08-24T08:52:29;96943.34;;;29.46;44.52
25855;BME280;13680;49.936;11.344;2023-08-24T08:54:54;96939.97;;;29.59;43.55
25855;BME280;13680;49.936;11.344;2023-08-24T08:57:21;96931.38;;;29.97;43.81
25855;BME280;13680;49.936;11.344;2023-08-24T08:59:48;96928.56;;;30.41;42.65
25855;BME280;13680;49.936;11.344;2023-08-24T09:02:16;96931.78;;;30.19;41.24
25855;BME280;13680;49.936;11.344;2023-08-24T09:04:44;96922.50;;;30.46;40.01
25855;BME280;13680;49.936;11.344;2023-08-24T09:07:12;96917.19;;;30.55;39.53
25855;BME280;13680;49.936;11.344;2023-08-24T09:09:38;96913.91;;;30.97;39.42
25855;BME280;13680;49.936;11.344;2023-08-24T09:12:05;96900.59;;;31.25;38.94
25855;BME280;13680;49.936;11.344;2023-08-24T09:14:32;96894.06;;;31.48;37.24
25855;BME280;13680;49.936;11.344;2023-08-24T09:16:58;96870.19;;;32.09;34.65
25855;BME280;13680;49.936;11.344;2023-08-24T09:19:30;96865.19;;;32.04;36.03
25855;BME280;13680;49.936;11.344;2023-08-24T09:21:57;96856.06;;;31.74;34.99
25855;BME280;13680;49.936;11.344;2023-08-24T09:24:32;96849.94;;;31.50;34.83
25855;BME280;13680;49.936;11.344;2023-08-24T09:26:58;96835.53;;;30.89;36.10
25855;BME280;13680;49.936;11.344;2023-08-24T09:29:24;96835.44;;;30.60;36.83
25855;BME280;13680;49.936;11.344;2023-08-24T09:31:52;96836.13;;;30.80;36.88
25855;BME280;13680;49.936;11.344;2023-08-24T09:34:24;96837.06;;;30.37;39.17
25855;BME280;13680;49.936;11.344;2023-08-24T09:36:51;96832.41;;;30.14;39.59
25855;BME280;13680;49.936;11.344;2023-08-24T09:39:17;96829.38;;;29.88;40.00
25855;BME280;13680;49.936;11.344;2023-08-24T09:41:48;96833.38;;;30.07;40.46
25855;BME280;13680;49.936;11.344;2023-08-24T09:44:13;96836.03;;;30.31;40.09
25855;BME280;13680;49.936;11.344;2023-08-24T09:46:39;96838.75;;;30.88;37.78
25855;BME280;13680;49.936;11.344;2023-08-24T09:49:07;96855.22;;;30.95;35.95
25855;BME280;13680;49.936;11.344;2023-08-24T09:51:34;96858.38;;;31.30;37.07
25855;BME280;13680;49.936;11.344;2023-08-24T09:54:04;96849.09;;;31.82;36.09
25855;BME280;13680;49.936;11.344;2023-08-24T09:56:32;96848.94;;;32.45;35.06
25855;BME280;13680;49.936;11.344;2023-08-24T09:59:00;96854.88;;;32.86;33.95
25855;BME280;13680;49.936;11.344;2023-08-24T10:01:30;96849.63;;;33.01;35.83
25855;BME280;13680;49.936;11.344;2023-08-24T10:03:57;96844.59;;;32.57;35.33
25855;BME280;13680;49.936;11.344;2023-08-24T10:06:27;96829.63;;;32.25;35.97
25855;BME280;13680;49.936;11.344;2023-08-24T10:08:55;96824.31;;;32.43;36.26
25855;BME280;13680;49.936;11.344;2023-08-24T10:11:26;96813.41;;;32.75;35.76
25855;BME280;13680;49.936;11.344;2023-08-24T10:14:00;96800.44;;;33.33;35.00
25855;BME280;13680;49.936;11.344;2023-08-24T10:16:33;96803.97;;;33.33;34.82
25855;BME280;13680;49.936;11.344;2023-08-24T10:19:01;96796.88;;;33.76;35.16
25855;BME280;13680;49.936;11.344;2023-08-24T10:21:28;96798.28;;;33.37;34.33
25855;BME280;13680;49.936;11.344;2023-08-24T10:23:55;96802.81;;;33.08;33.46
25855;BME280;13680;49.936;11.344;2023-08-24T10:26:22;96797.47;;;33.01;34.32
25855;BME280;13680;49.936;11.344;2023-08-24T10:28:49;96800.38;;;32.85;34.92
25855;BME280;13680;49.936;11.344;2023-08-24T10:31:15;96791.97;;;33.10;32.20
25855;BME280;13680;49.936;11.344;2023-08-24T10:33:41;96790.91;;;32.95;31.73
25855;BME280;13680;49.936;11.344;2023-08-24T10:36:09;96786.09;;;33.08;31.40
25855;BME280;13680;49.936;11.344;2023-08-24T10:38:40;96778.00;;;32.75;32.59
25855;BME280;13680;49.936;11.344;2023-08-24T10:41:09;96782.00;;;32.48;33.50
25855;BME280;13680;49.936;11.344;2023-08-24T10:43:38;96782.56;;;32.56;33.80
25855;BME280;13680;49.936;11.344;2023-08-24T10:46:11;96775.78;;;32.57;34.66
25855;BME280;13680;49.936;11.344;2023-08-24T10:53:57;96776.00;;;32.37;35.83
25855;BME280;13680;49.936;11.344;2023-08-24T10:56:35;96765.66;;;32.76;34.93
25855;BME280;13680;49.936;11.344;2023-08-24T10:59:15;96763.06;;;32.69;38.30
25855;BME280;13680;49.936;11.344;2023-08-24T11:01:43;96757.88;;;33.06;35.98
25855;BME280;13680;49.936;11.344;2023-08-24T11:04:10;96759.75;;;32.74;35.51
25855;BME280;13680;49.936;11.344;2023-08-24T11:06:54;96747.72;;;33.70;33.67
25855;BME280;13680;49.936;11.344;2023-08-24T11:09:19;96750.13;;;33.58;34.16
25855;BME280;13680;49.936;11.344;2023-08-24T11:12:00;96739.81;;;33.46;34.23
25855;BME280;13680;49.936;11.344;2023-08-24T11:14:26;96741.22;;;33.28;34.84
25855;BME280;13680;49.936;11.344;2023-08-24T11:16:52;96729.59;;;33.87;36.45
25855;BME280;13680;49.936;11.344;2023-08-24T11:19:18;96712.47;;;34.48;33.44
25855;BME280;13680;49.936;11.344;2023-08-24T11:21:45;96709.53;;;34.52;33.33
25855;BME280;13680;49.936;11.344;2023-08-24T11:24:12;96704.50;;;33.74;33.32
25855;BME280;13680;49.936;11.344;2023-08-24T11:26:48;96705.81;;;33.60;34.62
25855;BME280;13680;49.936;11.344;2023-08-24T11:29:13;96697.75;;;34.16;34.04
25855;BME280;13680;49.936;11.344;2023-08-24T11:31:40;96695.44;;;34.74;32.60
25855;BME280;13680;49.936;11.344;2023-08-24T11:34:06;96693.66;;;34.89;32.88
25855;BME280;13680;49.936;11.344;2023-08-24T11:36:41;96689.78;;;34.87;33.67
25855;BME280;13680;49.936;11.344;2023-08-24T11:39:13;96685.88;;;35.12;33.08
25855;BME280;13680;49.936;11.344;2023-08-24T11:41:38;96682.00;;;35.37;31.71
25855;BME280;13680;49.936;11.344;2023-08-24T11:44:04;96683.03;;;35.68;33.20
25855;BME280;13680;49.936;11.344;2023-08-24T11:46:29;96677.78;;;35.51;32.10
25855;BME280;13680;49.936;11.344;2023-08-24T11:48:57;96681.91;;;35.75;31.94
25855;BME280;13680;49.936;11.344;2023-08-24T11:51:22;96678.94;;;36.30;30.73
25855;BME280;13680;49.936;11.344;2023-08-24T11:53:48;96687.97;;;36.83;31.47
25855;BME280;13680;49.936;11.344;2023-08-24T11:56:14;96687.69;;;36.81;29.65
25855;BME280;13680;49.936;11.344;2023-08-24T11:58:42;96691.25;;;36.57;29.08
25855;BME280;13680;49.936;11.344;2023-08-24T12:01:10;96684.75;;;36.51;28.56
25855;BME280;13680;49.936;11.344;2023-08-24T12:03:37;96677.78;;;36.70;28.85
25855;BME280;13680;49.936;11.344;2023-08-24T12:06:10;96679.91;;;36.85;26.75
25855;BME280;13680;49.936;11.344;2023-08-24T12:08:41;96677.44;;;36.53;27.75
25855;BME280;13680;49.936;11.344;2023-08-24T12:11:16;96680.88;;;36.73;28.90
25855;BME280;13680;49.936;11.344;2023-08-24T12:13:43;96675.09;;;36.76;27.64
25855;BME280;13680;49.936;11.344;2023-08-24T12:16:10;96673.41;;;37.18;27.99
25855;BME280;13680;49.936;11.344;2023-08-24T12:18:37;96665.44;;;36.77;28.59
25855;BME280;13680;49.936;11.344;2023-08-24T12:21:11;96666.81;;;37.21;27.85
25855;BME280;13680;49.936;11.344;2023-08-24T12:23:38;96668.28;;;36.92;29.20
25855;BME280;13680;49.936;11.344;2023-08-24T12:26:04;96654.84;;;37.36;27.05
25855;BME280;13680;49.936;11.344;2023-08-24T12:28:33;96660.72;;;36.35;28.81
25855;BME280;13680;49.936;11.344;2023-08-24T12:30:58;96654.59;;;36.46;28.39
25855;BME280;13680;49.936;11.344;2023-08-24T12:33:31;96650.75;;;37.07;27.91
25855;BME280;13680;49.936;11.344;2023-08-24T12:35:57;96651.91;;;36.76;28.95
25855;BME280;13680;49.936;11.344;2023-08-24T12:38:24;96644.91;;;37.34;28.83
25855;BME280;13680;49.936;11.344;2023-08-24T12:40:50;96647.78;;;37.10;28.88
25855;BME280;13680;49.936;11.344;2023-08-24T12:43:15;96632.31;;;37.60;27.34
25855;BME280;13680;49.936;11.344;2023-08-24T12:45:41;96628.84;;;37.80;27.88
25855;BME280;13680;49.936;11.344;2023-08-24T12:48:07;96623.31;;;37.41;27.43
25855;BME280;13680;49.936;11.344;2023-08-24T12:50:33;96626.81;;;37.36;25.50
25855;BME280;13680;49.936;11.344;2023-08-24T12:52:59;96633.97;;;37.66;24.46